Weather at Calgary\Okotoks (GG Ranch) Heliport

Public forecast

Using degrees Celsius for public forecast. Weather courtesy of forecast.io.

Closest aviation weather report (METAR) to Calgary\Okotoks (GG Ranch) Heliport

Closest report is Calgary International Airport, 22.2 nm (41.1 km) N. Retrieved 2022/01/28 12:20 UTC (0 seconds ago):

CYYC 281220Z 28019G28KT 15SM FEW220 08/M22 A3006 RMK CI2 SLP206

Closest aviation forecast (TAF) to Calgary\Okotoks (GG Ranch) Heliport

Closest forecast is Calgary International Airport, 22.2 nm (41.1 km) N. Retrieved 2022/01/28 12:43 UTC (0 seconds ago):

TAF CYYC 281140Z 2812/2912 27010G20KT P6SM FEW250 FM282000 27015G25KT P6SM BKN240 FM290200 27010KT P6SM BKN260 RMK NXT FCST BY 281500Z